createdAt,value
2018-09-17T00:01:36.652Z,66.22
2018-09-17T00:04:04.105Z,66.59
2018-09-17T00:06:31.680Z,66.42
2018-09-17T00:08:59.152Z,66.36
2018-09-17T00:11:26.607Z,66.61
2018-09-17T00:13:54.243Z,66.66
2018-09-17T00:16:21.664Z,66.65
2018-09-17T00:18:49.088Z,66.13
2018-09-17T00:21:16.700Z,66.43
2018-09-17T00:23:44.262Z,66.72
2018-09-17T00:26:11.692Z,66.91
2018-09-17T00:28:39.346Z,66.69
2018-09-17T00:31:06.793Z,66.92
2018-09-17T00:33:34.338Z,66.67
2018-09-17T00:36:01.947Z,66.47
2018-09-17T00:38:29.377Z,66.30
2018-09-17T00:40:57.104Z,66.30
2018-09-17T00:43:24.998Z,66.80
2018-09-17T00:45:52.421Z,66.49
2018-09-17T00:48:19.984Z,66.65
2018-09-17T00:50:47.622Z,66.58
2018-09-17T00:53:15.042Z,66.74
2018-09-17T00:55:42.517Z,66.91
2018-09-17T00:58:10.074Z,66.47
2018-09-17T01:00:37.541Z,66.81
2018-09-17T01:03:05.047Z,66.82
2018-09-17T01:05:32.764Z,66.66
2018-09-17T01:08:00.229Z,66.72
2018-09-17T01:10:27.652Z,66.40
2018-09-17T01:12:55.201Z,66.22
2018-09-17T01:15:22.641Z,66.56
2018-09-17T01:17:50.178Z,66.67
2018-09-17T01:20:17.791Z,66.30
2018-09-17T01:22:45.208Z,66.18
2018-09-17T01:25:12.697Z,65.82
2018-09-17T01:27:40.595Z,66.21
2018-09-17T01:30:08.070Z,66.07
2018-09-17T01:32:35.493Z,66.02
2018-09-17T01:35:03.148Z,66.29
2018-09-17T01:37:30.540Z,66.29
2018-09-17T01:39:58.001Z,66.25
2018-09-17T01:42:25.913Z,66.22
2018-09-17T01:44:53.378Z,66.57
2018-09-17T01:47:20.833Z,66.55
2018-09-17T01:49:48.449Z,66.48
2018-09-17T01:52:16.076Z,66.55
2018-09-17T01:54:43.605Z,66.54
2018-09-17T01:57:11.198Z,66.92
2018-09-17T01:59:38.669Z,66.62
2018-09-17T02:02:07.254Z,66.85
2018-09-17T02:04:34.831Z,66.67
2018-09-17T02:07:02.370Z,66.68
2018-09-17T02:09:29.876Z,66.65
2018-09-17T02:11:57.535Z,66.71
2018-09-17T02:14:25.011Z,66.73
2018-09-17T02:16:52.462Z,66.91
2018-09-17T02:19:20.179Z,66.42
2018-09-17T02:21:47.661Z,66.69
2018-09-17T02:24:15.168Z,67.06
2018-09-17T02:26:42.800Z,67.11
2018-09-17T02:29:10.267Z,66.79
2018-09-17T02:31:37.707Z,66.72
2018-09-17T02:34:05.501Z,66.69
2018-09-17T02:36:33.003Z,66.89
2018-09-17T02:39:00.422Z,66.90
2018-09-17T02:41:28.015Z,66.70
2018-09-17T02:43:55.627Z,66.88
2018-09-17T02:46:23.118Z,67.01
2018-09-17T02:48:51.013Z,67.01
2018-09-17T02:51:18.478Z,67.01
2018-09-17T02:53:45.905Z,67.14
2018-09-17T02:56:13.514Z,66.95
2018-09-17T02:58:40.984Z,67.06
2018-09-17T03:01:08.446Z,67.30
2018-09-17T03:03:36.157Z,67.08
2018-09-17T03:06:03.619Z,67.17
2018-09-17T03:08:31.020Z,67.08
2018-09-17T03:10:58.669Z,66.99
2018-09-17T03:13:26.077Z,66.93
2018-09-17T03:15:54.596Z,66.87
2018-09-17T03:18:55.920Z,67.11
2018-09-17T03:21:23.434Z,67.38
2018-09-17T03:23:50.884Z,67.41
2018-09-17T03:26:18.765Z,67.14
2018-09-17T03:28:46.176Z,67.07
2018-09-17T03:31:13.656Z,67.17
2018-09-17T03:33:44.314Z,67.67
2018-09-17T03:36:11.914Z,67.44
2018-09-17T03:38:50.339Z,67.52
2018-09-17T03:41:18.859Z,67.43
2018-09-17T03:43:49.557Z,67.65
2018-09-17T03:46:17.310Z,67.56
2018-09-17T03:48:44.734Z,67.33
2018-09-17T03:51:12.739Z,67.69
2018-09-17T03:53:40.545Z,67.69
2018-09-17T03:56:08.221Z,67.71
2018-09-17T03:58:35.902Z,67.39
2018-09-17T04:01:03.758Z,67.59
2018-09-17T04:03:31.346Z,67.48
2018-09-17T04:05:58.946Z,67.57
2018-09-17T04:08:26.432Z,67.85
2018-09-17T04:10:53.920Z,67.55
2018-09-17T04:13:21.625Z,67.74
2018-09-17T04:15:49.133Z,67.62
2018-09-17T04:18:16.627Z,68.23
2018-09-17T04:20:44.257Z,68.18
2018-09-17T04:24:35.398Z,68.00
2018-09-17T04:27:03.106Z,68.20
2018-09-17T04:29:30.520Z,68.04
2018-09-17T04:31:57.992Z,67.93
2018-09-17T04:34:25.662Z,68.22
2018-09-17T04:36:53.082Z,68.14
2018-09-17T04:39:22.395Z,68.31
2018-09-17T04:41:49.981Z,68.41
2018-09-17T04:44:17.372Z,68.83
2018-09-17T04:46:45.060Z,68.59
2018-09-17T04:49:12.874Z,68.64
2018-09-17T04:55:10.586Z,68.76
2018-09-17T04:57:38.005Z,69.00
2018-09-17T05:00:05.784Z,69.16
2018-09-17T05:02:33.440Z,69.11
2018-09-17T05:05:00.867Z,69.11
2018-09-17T05:07:28.327Z,68.78
2018-09-17T05:09:55.970Z,69.16
2018-09-17T05:12:23.455Z,69.13
2018-09-17T05:14:50.880Z,69.65
2018-09-17T05:17:18.415Z,69.50
2018-09-17T05:19:45.919Z,69.60
2018-09-17T05:22:13.479Z,69.42
2018-09-17T05:24:41.068Z,69.66
2018-09-17T05:27:08.530Z,69.71
2018-09-17T05:29:36.014Z,69.64
2018-09-17T05:32:03.600Z,69.61
2018-09-17T05:34:31.028Z,69.67
2018-09-17T05:36:58.506Z,70.17
2018-09-17T05:39:26.103Z,69.87
2018-09-17T05:41:53.502Z,70.03
2018-09-17T05:44:20.940Z,70.24
2018-09-17T05:46:48.570Z,70.39
2018-09-17T05:49:16.294Z,70.14
2018-09-17T05:51:43.743Z,70.22
2018-09-17T05:54:11.488Z,70.62
2018-09-17T05:56:38.961Z,70.63
2018-09-17T05:59:06.419Z,70.74
2018-09-17T06:01:34.129Z,71.21
2018-09-17T06:04:01.626Z,70.80
2018-09-17T06:06:29.055Z,71.04
2018-09-17T06:08:56.675Z,71.33
2018-09-17T06:11:24.210Z,71.46
2018-09-17T06:13:51.656Z,71.25
2018-09-17T06:16:19.290Z,71.26
2018-09-17T06:18:46.726Z,71.34
2018-09-17T06:21:14.190Z,71.19
2018-09-17T06:23:41.864Z,71.74
2018-09-17T06:26:09.305Z,71.68
2018-09-17T06:28:36.840Z,71.80
2018-09-17T06:31:04.360Z,71.68
2018-09-17T06:33:31.812Z,71.51
2018-09-17T06:35:59.298Z,71.62
2018-09-17T06:38:26.797Z,71.89
2018-09-17T06:40:54.227Z,72.15
2018-09-17T06:43:21.652Z,71.46
2018-09-17T06:45:49.351Z,71.67
2018-09-17T06:48:16.752Z,72.09
2018-09-17T06:50:44.426Z,71.96
2018-09-17T06:53:12.242Z,72.20
2018-09-17T06:55:39.695Z,72.20
2018-09-17T06:58:07.161Z,72.38
2018-09-17T07:00:34.843Z,72.43
2018-09-17T07:03:02.313Z,72.49
2018-09-17T07:05:29.767Z,71.99
2018-09-17T07:07:57.328Z,72.11
2018-09-17T07:10:24.780Z,72.60
2018-09-17T07:12:52.216Z,72.38
2018-09-17T07:15:19.836Z,72.56
2018-09-17T07:17:47.333Z,72.34
2018-09-17T07:20:14.787Z,72.54
2018-09-17T07:22:42.441Z,72.64
2018-09-17T07:25:09.896Z,72.78
2018-09-17T07:27:37.389Z,72.56
2018-09-17T07:30:05.021Z,72.55
2018-09-17T07:32:32.566Z,72.85
2018-09-17T07:35:00.114Z,73.07
2018-09-17T07:37:27.701Z,72.68
2018-09-17T07:39:55.241Z,73.14
2018-09-17T07:42:22.773Z,73.25
2018-09-17T07:44:50.344Z,73.03
2018-09-17T07:47:17.856Z,73.21
2018-09-17T07:49:45.391Z,73.12
2018-09-17T07:52:13.418Z,73.18
2018-09-17T07:54:40.863Z,73.50
2018-09-17T07:57:08.355Z,73.80
2018-09-17T07:59:35.968Z,73.68
2018-09-17T08:02:03.718Z,73.75
2018-09-17T08:04:31.316Z,73.88
2018-09-17T08:06:58.902Z,73.96
2018-09-17T08:09:26.365Z,73.62
2018-09-17T08:11:53.953Z,73.85
2018-09-17T08:14:21.799Z,73.76
2018-09-17T08:16:49.251Z,74.03
2018-09-17T08:19:16.750Z,74.03
2018-09-17T08:21:44.365Z,73.81
2018-09-17T08:24:11.848Z,73.76
2018-09-17T08:26:39.346Z,74.17
2018-09-17T08:29:06.969Z,74.21
2018-09-17T08:31:34.402Z,74.41
2018-09-17T08:34:01.818Z,73.78
2018-09-17T08:36:29.464Z,74.46
2018-09-17T08:38:56.950Z,74.10
2018-09-17T08:41:24.485Z,74.29
2018-09-17T08:43:52.081Z,74.57
2018-09-17T08:46:19.562Z,74.59
2018-09-17T08:48:47.001Z,74.53
2018-09-17T08:51:14.638Z,74.89
2018-09-17T08:53:42.232Z,74.46
2018-09-17T08:56:15.156Z,74.61
2018-09-17T08:58:48.127Z,75.08
2018-09-17T09:01:21.130Z,75.07
2018-09-17T09:03:54.043Z,75.07
2018-09-17T09:06:27.220Z,74.97
2018-09-17T09:08:54.858Z,75.27
2018-09-17T09:11:26.813Z,75.16
2018-09-17T09:14:00.932Z,75.29
2018-09-17T09:16:28.503Z,75.28
2018-09-17T09:18:55.988Z,74.85
2018-09-17T09:21:23.687Z,75.15
2018-09-17T09:23:51.222Z,75.39
2018-09-17T09:26:18.656Z,75.23
2018-09-17T09:28:46.196Z,75.72
2018-09-17T09:31:13.598Z,75.75
2018-09-17T09:33:41.043Z,75.76
2018-09-17T09:36:08.668Z,75.81
2018-09-17T09:38:36.139Z,75.80
2018-09-17T09:41:03.630Z,75.62
2018-09-17T09:43:31.419Z,75.66
2018-09-17T09:45:58.870Z,75.32
2018-09-17T09:48:26.416Z,75.50
2018-09-17T09:50:54.421Z,75.57
2018-09-17T09:53:21.839Z,75.53
2018-09-17T09:55:49.502Z,75.49
2018-09-17T09:58:17.159Z,75.59
2018-09-17T10:00:50.243Z,75.78
2018-09-17T10:03:23.217Z,75.53
2018-09-17T10:05:50.956Z,75.67
2018-09-17T10:08:18.483Z,75.67
2018-09-17T10:10:51.668Z,75.46
2018-09-17T10:13:24.535Z,75.41
2018-09-17T10:15:55.234Z,75.32
2018-09-17T10:18:28.320Z,75.44
2018-09-17T10:20:55.991Z,75.10
2018-09-17T10:23:23.475Z,75.63
2018-09-17T10:25:50.968Z,74.88
2018-09-17T10:28:18.744Z,74.98
2018-09-17T10:30:46.194Z,74.96
2018-09-17T10:33:13.585Z,74.75
2018-09-17T10:35:41.294Z,74.63
2018-09-17T10:38:08.888Z,75.13
2018-09-17T10:40:36.369Z,74.81
2018-09-17T10:43:04.175Z,74.76
2018-09-17T10:45:31.615Z,74.50
2018-09-17T10:47:59.068Z,74.49
2018-09-17T10:50:26.750Z,74.51
2018-09-17T10:52:54.199Z,74.51
2018-09-17T10:55:21.714Z,74.19
2018-09-17T10:57:49.600Z,74.17
2018-09-17T11:00:17.082Z,73.65
2018-09-17T11:02:44.494Z,73.80
2018-09-17T11:05:12.236Z,74.11
2018-09-17T11:07:39.700Z,73.87
2018-09-17T11:10:07.164Z,73.67
2018-09-17T11:12:34.885Z,73.74
2018-09-17T11:15:02.343Z,73.68
2018-09-17T11:17:29.975Z,73.51
2018-09-17T11:19:57.593Z,73.83
2018-09-17T11:22:25.049Z,73.47
2018-09-17T11:24:52.703Z,73.51
2018-09-17T11:27:20.411Z,73.69
2018-09-17T11:29:47.916Z,73.25
2018-09-17T11:32:15.388Z,73.63
2018-09-17T11:34:43.308Z,73.63
2018-09-17T11:37:10.730Z,73.58
2018-09-17T11:39:38.148Z,73.12
2018-09-17T11:42:05.535Z,73.28
2018-09-17T11:44:32.969Z,73.12
2018-09-17T11:47:00.436Z,72.51
2018-09-17T11:49:28.091Z,72.68
2018-09-17T11:51:55.596Z,72.60
2018-09-17T11:54:23.048Z,72.32
2018-09-17T11:56:50.856Z,72.12
2018-09-17T11:59:18.591Z,72.31
2018-09-17T12:01:50.461Z,72.05
2018-09-17T12:04:23.398Z,72.38
2018-09-17T12:06:56.352Z,72.54
2018-09-17T12:09:24.101Z,71.99
2018-09-17T12:11:51.552Z,72.01
2018-09-17T12:14:18.988Z,72.00
2018-09-17T12:16:46.475Z,72.28
2018-09-17T12:19:13.951Z,71.83
2018-09-17T12:21:41.441Z,71.91
2018-09-17T12:24:09.077Z,71.85
2018-09-17T12:26:36.476Z,71.87
2018-09-17T12:29:04.002Z,72.11
2018-09-17T12:31:31.691Z,71.90
2018-09-17T12:33:59.138Z,72.38
2018-09-17T12:36:26.611Z,72.25
2018-09-17T12:38:54.179Z,71.66
2018-09-17T12:41:21.620Z,71.71
2018-09-17T12:43:49.120Z,71.86
2018-09-17T12:46:16.830Z,71.84
2018-09-17T12:48:44.236Z,71.84
2018-09-17T12:51:11.683Z,71.68
2018-09-17T12:53:39.506Z,71.35
2018-09-17T12:56:06.986Z,71.79
2018-09-17T12:58:34.489Z,71.67
2018-09-17T13:01:02.443Z,71.65
2018-09-17T13:03:29.908Z,71.23
2018-09-17T13:05:57.335Z,71.39
2018-09-17T13:08:24.973Z,70.83
2018-09-17T13:10:52.435Z,70.62
2018-09-17T13:13:19.998Z,70.52
2018-09-17T13:15:54.423Z,70.31
2018-09-17T13:18:23.302Z,70.39
2018-09-17T13:20:50.767Z,70.14
2018-09-17T13:23:18.466Z,70.52
2018-09-17T13:25:45.893Z,70.41
2018-09-17T13:28:13.457Z,70.58
2018-09-17T13:30:41.019Z,70.42
2018-09-17T13:33:08.559Z,70.32
2018-09-17T13:35:35.996Z,70.10
2018-09-17T13:38:03.759Z,69.67
2018-09-17T13:40:31.267Z,69.51
2018-09-17T13:42:58.768Z,69.34
2018-09-17T13:45:26.491Z,68.65
2018-09-17T13:47:53.926Z,68.58
2018-09-17T13:50:21.418Z,68.43
2018-09-17T13:52:49.061Z,68.36
2018-09-17T13:55:16.587Z,68.47
2018-09-17T13:57:44.108Z,68.36
2018-09-17T14:00:11.911Z,68.24
2018-09-17T14:02:39.531Z,68.13
2018-09-17T14:05:07.010Z,68.06
2018-09-17T14:07:34.663Z,67.85
2018-09-17T14:10:02.396Z,67.42
2018-09-17T14:12:29.767Z,67.29
2018-09-17T14:14:57.474Z,67.16
2018-09-17T14:17:24.953Z,66.60
2018-09-17T14:19:52.381Z,67.05
2018-09-17T14:22:20.151Z,67.30
2018-09-17T14:24:47.586Z,67.09
2018-09-17T14:27:15.075Z,67.35
2018-09-17T14:29:42.773Z,67.27
2018-09-17T14:32:15.751Z,66.56
2018-09-17T14:34:43.366Z,66.77
2018-09-17T14:37:10.835Z,67.05
2018-09-17T14:39:38.256Z,66.95
2018-09-17T14:42:05.898Z,66.34
2018-09-17T14:44:33.324Z,66.81
2018-09-17T14:47:00.796Z,67.20
2018-09-17T14:49:28.544Z,66.93
2018-09-17T14:51:55.967Z,67.87
2018-09-17T14:54:23.384Z,67.87
2018-09-17T14:56:51.163Z,67.61
2018-09-17T14:59:18.649Z,67.25
2018-09-17T15:01:46.192Z,67.63
2018-09-17T15:04:14.042Z,67.64
2018-09-17T15:06:41.545Z,67.39
2018-09-17T15:09:09.687Z,67.56
2018-09-17T15:11:37.347Z,68.06
2018-09-17T15:14:04.981Z,67.83
2018-09-17T15:16:32.511Z,68.00
2018-09-17T15:19:00.247Z,67.61
2018-09-17T15:21:27.727Z,67.32
2018-09-17T15:23:55.276Z,66.97
2018-09-17T15:26:23.064Z,67.00
2018-09-17T15:28:50.401Z,67.69
2018-09-17T15:31:17.908Z,67.24
2018-09-17T15:33:45.562Z,67.33
2018-09-17T15:36:13.048Z,67.66
2018-09-17T15:38:40.484Z,67.78
2018-09-17T15:41:08.232Z,68.42
2018-09-17T15:43:35.565Z,68.06
2018-09-17T15:46:03.111Z,68.29
2018-09-17T15:48:30.802Z,68.86
2018-09-17T15:50:58.317Z,68.24
2018-09-17T15:53:25.774Z,68.75
2018-09-17T15:55:53.417Z,68.50
2018-09-17T15:58:20.927Z,68.70
2018-09-17T16:00:48.871Z,68.45
2018-09-17T16:03:16.520Z,68.72
2018-09-17T16:05:44.364Z,68.51
2018-09-17T16:08:11.819Z,68.61
2018-09-17T16:10:39.463Z,68.58
2018-09-17T16:13:06.916Z,68.76
2018-09-17T16:15:35.293Z,68.65
2018-09-17T16:18:03.107Z,68.79
2018-09-17T16:20:30.558Z,68.84
2018-09-17T16:22:57.954Z,68.75
2018-09-17T16:25:25.604Z,69.06
2018-09-17T16:27:53.070Z,69.20
2018-09-17T16:30:20.453Z,68.98
2018-09-17T16:32:47.991Z,68.55
2018-09-17T16:35:15.435Z,68.92
2018-09-17T16:37:42.880Z,68.58
2018-09-17T16:40:10.472Z,69.06
2018-09-17T16:42:37.977Z,69.11
2018-09-17T16:45:05.546Z,69.03
2018-09-17T16:47:33.157Z,68.67
2018-09-17T16:50:00.651Z,68.90
2018-09-17T16:52:28.074Z,68.29
2018-09-17T16:54:55.632Z,68.25
2018-09-17T16:57:23.064Z,68.57
2018-09-17T16:59:50.622Z,68.69
2018-09-17T17:02:18.096Z,68.42
2018-09-17T17:04:48.411Z,68.62
2018-09-17T17:07:15.936Z,69.01
2018-09-17T17:09:43.530Z,68.52
2018-09-17T17:12:10.965Z,69.00
2018-09-17T17:14:38.406Z,68.79
2018-09-17T17:17:06.059Z,68.61
2018-09-17T17:19:33.558Z,68.05
2018-09-17T17:22:01.001Z,67.95
2018-09-17T17:24:28.715Z,68.23
2018-09-17T17:26:56.154Z,68.12
2018-09-17T17:29:23.648Z,67.97
2018-09-17T17:31:51.269Z,68.06
2018-09-17T17:34:18.732Z,68.19
2018-09-17T17:36:46.199Z,68.46
2018-09-17T17:39:13.879Z,67.83
2018-09-17T17:41:41.270Z,68.09
2018-09-17T17:44:08.878Z,67.61
2018-09-17T17:46:36.592Z,67.62
2018-09-17T17:49:04.067Z,67.52
2018-09-17T17:51:31.545Z,67.40
2018-09-17T17:53:59.207Z,67.64
2018-09-17T17:56:26.672Z,67.62
2018-09-17T17:58:54.163Z,67.28
2018-09-17T18:01:21.960Z,66.88
2018-09-17T18:03:49.499Z,66.54
2018-09-17T18:06:16.959Z,66.63
2018-09-17T18:08:44.883Z,66.89
2018-09-17T18:11:12.320Z,66.12
2018-09-17T18:13:39.812Z,66.32
2018-09-17T18:16:07.504Z,66.12
2018-09-17T18:18:35.010Z,66.29
2018-09-17T18:21:02.487Z,66.77
2018-09-17T18:23:29.905Z,66.79
2018-09-17T18:25:57.412Z,66.99
2018-09-17T18:28:24.881Z,67.02
2018-09-17T18:30:52.425Z,66.77
2018-09-17T18:33:20.085Z,66.64
2018-09-17T18:35:47.534Z,66.85
2018-09-17T18:38:15.103Z,66.82
2018-09-17T18:40:42.620Z,66.87
2018-09-17T18:43:10.066Z,66.90
2018-09-17T18:45:37.788Z,67.24
2018-09-17T18:48:05.759Z,66.83
2018-09-17T18:50:33.191Z,66.78
2018-09-17T18:53:00.798Z,67.34
2018-09-17T18:55:28.401Z,66.68
2018-09-17T18:57:55.818Z,67.04
2018-09-17T19:00:23.437Z,66.71
2018-09-17T19:02:50.945Z,66.98
2018-09-17T19:05:18.353Z,66.38
2018-09-17T19:07:45.923Z,66.59
2018-09-17T19:10:13.517Z,66.33
2018-09-17T19:12:41.025Z,66.68
2018-09-17T19:15:14.037Z,66.53
2018-09-17T19:17:42.045Z,66.10
2018-09-17T19:20:10.645Z,66.05
2018-09-17T19:22:43.730Z,66.11
2018-09-17T19:25:13.358Z,65.98
2018-09-17T19:27:46.492Z,66.09
2018-09-17T19:30:14.353Z,65.59
2018-09-17T19:32:41.838Z,66.01
2018-09-17T19:35:09.295Z,66.25
2018-09-17T19:37:42.274Z,66.26
2018-09-17T19:40:10.060Z,66.31
2018-09-17T19:42:37.611Z,66.49
2018-09-17T19:45:10.686Z,66.63
2018-09-17T19:47:38.257Z,66.54
2018-09-17T19:50:11.569Z,66.68
2018-09-17T19:52:39.026Z,66.48
2018-09-17T19:55:06.748Z,66.82
2018-09-17T19:57:39.633Z,67.22
2018-09-17T20:00:07.259Z,67.20
2018-09-17T20:02:34.739Z,67.61
2018-09-17T20:07:14.609Z,67.25
2018-09-17T20:09:42.210Z,67.72
2018-09-17T20:12:09.813Z,67.63
2018-09-17T20:14:37.346Z,67.93
2018-09-17T20:17:04.946Z,68.03
2018-09-17T20:19:32.392Z,67.95
2018-09-17T20:21:59.816Z,67.42
2018-09-17T20:24:27.349Z,67.72
2018-09-17T20:26:54.799Z,67.94
2018-09-17T20:29:22.236Z,68.23
2018-09-17T20:31:49.892Z,68.26
2018-09-17T20:34:17.309Z,68.09
2018-09-17T20:36:44.771Z,68.58
2018-09-17T20:39:12.286Z,68.68
2018-09-17T20:41:39.757Z,68.37
2018-09-17T20:44:07.273Z,68.92
2018-09-17T20:46:34.956Z,68.78
2018-09-17T20:49:02.459Z,68.96
2018-09-17T20:51:29.834Z,68.81
2018-09-17T20:53:57.485Z,68.64
2018-09-17T20:56:25.093Z,68.93
2018-09-17T20:58:52.569Z,69.09
2018-09-17T21:01:20.324Z,69.45
2018-09-17T21:03:47.724Z,69.20
2018-09-17T21:06:15.223Z,68.96
2018-09-17T21:08:42.712Z,69.22
2018-09-17T21:11:10.159Z,69.41
2018-09-17T21:13:37.802Z,69.31
2018-09-17T21:16:05.497Z,69.08
2018-09-17T21:18:33.034Z,69.44
2018-09-17T21:21:00.525Z,69.29
2018-09-17T21:23:28.201Z,69.41
2018-09-17T21:25:55.778Z,69.41
2018-09-17T21:28:23.252Z,68.92
2018-09-17T21:30:50.993Z,69.33
2018-09-17T21:33:18.402Z,69.25
2018-09-17T21:35:45.901Z,69.33
2018-09-17T21:38:13.510Z,69.60
2018-09-17T21:40:40.938Z,69.53
2018-09-17T21:43:08.395Z,69.94
2018-09-17T21:45:36.151Z,69.34
2018-09-17T21:48:03.605Z,69.59
2018-09-17T21:50:31.190Z,69.92
2018-09-17T21:52:58.843Z,69.70
2018-09-17T21:55:26.313Z,69.94
2018-09-17T21:57:53.818Z,70.16
2018-09-17T22:00:21.585Z,69.91
2018-09-17T22:02:49.080Z,70.07
2018-09-17T22:05:16.596Z,69.98
2018-09-17T22:07:44.353Z,70.16
2018-09-17T22:10:11.897Z,70.04
2018-09-17T22:12:39.344Z,69.51
2018-09-17T22:15:07.231Z,69.91
2018-09-17T22:17:34.754Z,69.55
2018-09-17T22:22:36.457Z,69.80
2018-09-17T22:25:03.975Z,69.69
2018-09-17T22:27:31.489Z,69.82
2018-09-17T22:29:59.149Z,69.92
2018-09-17T22:32:26.603Z,69.82
2018-09-17T22:34:54.127Z,70.25
2018-09-17T22:37:21.912Z,70.19
2018-09-17T22:39:49.356Z,70.51
2018-09-17T22:42:16.947Z,70.61
2018-09-17T22:44:44.651Z,70.54
2018-09-17T22:47:12.123Z,70.39
2018-09-17T22:49:39.617Z,70.53
2018-09-17T22:52:07.179Z,70.48
2018-09-17T22:54:34.638Z,70.48
2018-09-17T22:57:02.094Z,70.40
2018-09-17T22:59:29.784Z,70.55
2018-09-17T23:01:57.262Z,70.70
2018-09-17T23:04:24.735Z,70.50
2018-09-17T23:06:52.387Z,70.66
2018-09-17T23:09:19.873Z,70.88
2018-09-17T23:11:47.303Z,71.14
2018-09-17T23:14:15.027Z,70.85
2018-09-17T23:16:42.675Z,71.24
2018-09-17T23:19:10.357Z,71.08
2018-09-17T23:21:38.004Z,71.10
2018-09-17T23:24:05.453Z,70.67
2018-09-17T23:26:32.948Z,71.30
2018-09-17T23:29:00.489Z,71.15
2018-09-17T23:31:27.961Z,71.39
2018-09-17T23:33:55.455Z,71.29
2018-09-17T23:36:23.191Z,71.00
2018-09-17T23:38:50.677Z,71.37
2018-09-17T23:41:18.138Z,71.52
2018-09-17T23:43:45.875Z,71.40
2018-09-17T23:46:13.295Z,71.18
2018-09-17T23:48:40.785Z,71.38
2018-09-17T23:51:08.586Z,71.09
2018-09-17T23:53:36.102Z,71.06
2018-09-17T23:56:03.696Z,71.43
2018-09-17T23:58:31.311Z,71.52
